Time;durP1;ratioP1;P1;durP2;ratioP2;P2;SDS_P1;SDS_P2;PMS_P1;PMS_P2;Temp;Humidity;BMP_temperature;BMP_pressure;BME280_temperature;BME280_humidity;BME280_pressure;Samples;Min_cycle;Max_cycle;Signal;HPM_P1;HPM_P2
2023/08/04 00:01:14;;;;;;;3.80;2.20;;;20.90;78.60;21.80;100156.00;;;;6271474;22;20660;-52
2023/08/04 00:03:40;;;;;;;2.93;2.37;;;20.90;78.60;21.80;100161.00;;;;6271130;22;20216;-52
2023/08/04 00:06:09;;;;;;;2.20;2.00;;;20.90;78.60;21.80;100163.00;;;;6276386;22;20502;-52
2023/08/04 00:08:35;;;;;;;2.67;2.20;;;20.90;78.60;21.80;100162.00;;;;6270407;22;20152;-52
2023/08/04 00:11:01;;;;;;;2.43;2.07;;;20.90;78.60;21.80;100167.00;;;;6270946;22;20232;-52
2023/08/04 00:13:27;;;;;;;2.30;2.10;;;20.90;78.60;21.70;100161.00;;;;6270850;22;20149;-50
2023/08/04 00:15:53;;;;;;;2.67;2.30;;;20.90;78.60;21.80;100165.00;;;;6271381;22;20156;-52
2023/08/04 00:18:18;;;;;;;2.30;2.10;;;20.90;78.60;21.80;100159.00;;;;6272543;22;20161;-53
2023/08/04 00:20:44;;;;;;;2.20;2.00;;;20.80;78.60;21.80;100162.00;;;;6272618;22;20176;-53
2023/08/04 00:23:10;;;;;;;1.90;1.80;;;20.80;78.50;21.80;100161.00;;;;6272933;22;20612;-52
2023/08/04 00:25:36;;;;;;;2.37;2.17;;;20.80;78.60;21.70;100166.00;;;;6273077;22;20176;-52
2023/08/04 00:28:02;;;;;;;2.27;2.07;;;20.80;78.60;21.70;100154.00;;;;6272959;22;20467;-52
2023/08/04 00:30:27;;;;;;;2.03;1.93;;;20.80;78.50;21.70;100161.00;;;;6271057;22;20161;-53
2023/08/04 00:32:53;;;;;;;2.43;2.17;;;20.80;78.60;21.70;100163.00;;;;6272617;22;20155;-53
2023/08/04 00:35:19;;;;;;;3.63;2.10;;;20.80;78.60;21.70;100168.00;;;;6270849;22;20260;-52
2023/08/04 00:37:45;;;;;;;2.67;2.30;;;20.80;78.60;21.70;100165.00;;;;6272586;22;20509;-52
2023/08/04 00:40:11;;;;;;;2.30;2.10;;;20.80;78.60;21.70;100163.00;;;;6272655;22;20165;-52
2023/08/04 00:42:37;;;;;;;3.00;2.30;;;20.80;78.60;21.70;100166.00;;;;6272701;22;20609;-52
2023/08/04 00:45:07;;;;;;;2.50;2.30;;;20.80;78.60;21.70;100160.00;;;;6272693;22;20251;-52
2023/08/04 00:47:35;;;;;;;2.37;2.17;;;20.80;78.60;21.70;100171.00;;;;6245375;22;20153;-52
2023/08/04 00:50:05;;;;;;;2.37;2.17;;;20.80;78.60;21.70;100179.00;;;;6272236;22;20706;-50
2023/08/04 00:52:31;;;;;;;2.10;1.90;;;20.80;78.60;21.70;100186.00;;;;6270817;22;20152;-52
2023/08/04 00:54:57;;;;;;;2.43;2.20;;;20.80;78.60;21.70;100189.00;;;;6270725;22;20141;-52
2023/08/04 00:57:22;;;;;;;2.20;2.00;;;20.80;78.60;21.70;100184.00;;;;6272191;22;20629;-51
2023/08/04 00:59:48;;;;;;;2.33;2.13;;;20.80;78.60;21.70;100185.00;;;;6271875;22;20176;-51
2023/08/04 01:02:14;;;;;;;2.40;2.20;;;20.80;78.60;21.70;100195.00;;;;6270737;22;20145;-54
2023/08/04 01:04:40;;;;;;;2.50;2.30;;;20.80;78.60;21.70;100193.00;;;;6272570;22;20156;-51
2023/08/04 01:07:18;;;;;;;2.80;2.10;;;20.80;78.60;21.70;100168.00;;;;6244944;22;20192;-51
2023/08/04 01:10:20;;;;;;;2.30;2.10;;;20.80;78.50;21.70;100198.00;;;;6246053;22;20186;-51
2023/08/04 01:13:04;;;;;;;2.90;2.20;;;20.80;78.60;21.60;100189.00;;;;6272352;22;20137;-51
2023/08/04 01:15:30;;;;;;;2.27;2.07;;;20.70;78.60;21.60;100199.00;;;;6270636;22;20134;-52
2023/08/04 01:17:56;;;;;;;2.60;2.40;;;20.70;78.50;21.60;100192.00;;;;6272200;22;20281;-51
2023/08/04 01:20:26;;;;;;;2.30;2.10;;;20.70;78.60;21.60;100204.00;;;;6270952;22;20164;-52
2023/08/04 01:22:52;;;;;;;2.30;2.10;;;20.70;78.60;21.60;100205.00;;;;6270826;22;20148;-51
2023/08/04 01:25:25;;;;;;;3.37;2.27;;;20.70;78.60;21.60;100204.00;;;;6245242;22;20234;-52
2023/08/04 01:27:54;;;;;;;2.30;2.10;;;20.70;78.60;21.60;100202.00;;;;6221468;22;20156;-51
2023/08/04 01:30:22;;;;;;;3.47;2.03;;;20.70;78.60;21.60;100202.00;;;;6220912;22;20165;-51
2023/08/04 01:32:48;;;;;;;2.43;2.00;;;20.70;78.60;21.60;100196.00;;;;6271916;22;20165;-52
2023/08/04 01:35:14;;;;;;;2.10;2.00;;;20.70;78.60;21.60;100201.00;;;;6271848;22;20184;-52
2023/08/04 01:37:39;;;;;;;2.53;1.93;;;20.70;78.60;21.60;100196.00;;;;6270242;22;20205;-51
2023/08/04 01:40:06;;;;;;;2.30;2.10;;;20.70;78.60;21.60;100206.00;;;;6271813;22;20177;-51
2023/08/04 01:42:32;;;;;;;2.30;2.10;;;20.70;78.60;21.60;100202.00;;;;6270721;22;20486;-51
2023/08/04 01:44:58;;;;;;;2.10;1.90;;;20.70;78.60;21.60;100201.00;;;;6271748;22;20145;-51
2023/08/04 01:47:23;;;;;;;2.20;2.00;;;20.70;79.30;21.60;100202.00;;;;6271736;22;20207;-51
2023/08/04 01:49:49;;;;;;;2.40;2.20;;;20.70;78.60;21.60;100205.00;;;;6280153;22;20180;-51
2023/08/04 01:52:15;;;;;;;3.40;2.13;;;20.70;78.60;21.60;100207.00;;;;6277639;22;20151;-51
2023/08/04 01:54:40;;;;;;;2.67;2.10;;;20.70;78.60;21.60;100210.00;;;;6270277;22;20644;-51
2023/08/04 01:57:06;;;;;;;2.63;2.10;;;20.70;78.60;21.60;100202.00;;;;6271487;22;20153;-51
2023/08/04 01:59:32;;;;;;;2.17;1.97;;;20.70;78.80;21.60;100204.00;;;;6271828;22;20171;-51
2023/08/04 02:01:58;;;;;;;2.50;2.27;;;20.70;78.70;21.60;100206.00;;;;6271554;22;20192;-51
2023/08/04 02:04:23;;;;;;;2.40;2.20;;;20.60;78.70;21.50;100201.00;;;;6277189;22;20145;-51
2023/08/04 02:06:49;;;;;;;3.70;2.10;;;20.60;78.70;21.50;100213.00;;;;6272866;22;20219;-51
2023/08/04 02:09:15;;;;;;;2.50;2.27;;;20.70;78.80;21.50;100212.00;;;;6271750;22;20211;-50
2023/08/04 02:11:41;;;;;;;3.13;2.20;;;20.60;78.70;21.50;100212.00;;;;6271483;22;20610;-52
2023/08/04 02:14:07;;;;;;;2.40;2.20;;;20.70;78.80;21.50;100212.00;;;;6271514;22;20191;-52
2023/08/04 02:16:33;;;;;;;2.10;1.90;;;20.60;78.60;21.50;100202.00;;;;6271196;22;20157;-52
2023/08/04 02:19:09;;;;;;;2.40;2.20;;;20.70;78.60;21.50;100217.00;;;;6272159;22;20156;-52
2023/08/04 02:21:35;;;;;;;2.23;2.03;;;20.60;78.70;21.50;100195.00;;;;6272027;22;20192;-52
2023/08/04 02:24:02;;;;;;;2.37;2.17;;;20.60;78.70;21.50;100217.00;;;;6272157;22;20616;-53
2023/08/04 02:26:28;;;;;;;2.67;2.10;;;20.60;78.70;21.50;100222.00;;;;6271809;22;20168;-52
2023/08/04 02:28:54;;;;;;;2.27;2.07;;;20.60;78.70;21.50;100214.00;;;;6271976;22;20149;-52
2023/08/04 02:31:20;;;;;;;2.30;2.10;;;20.60;78.70;21.50;100219.00;;;;6271626;22;20250;-52
2023/08/04 02:33:46;;;;;;;2.73;2.20;;;20.60;78.60;21.50;100212.00;;;;6271542;22;20145;-52
2023/08/04 02:36:13;;;;;;;2.20;2.00;;;20.60;78.60;21.50;100214.00;;;;6271302;22;20148;-52
2023/08/04 02:38:39;;;;;;;2.33;2.03;;;20.60;79.40;21.50;100212.00;;;;6271016;22;20561;-50
2023/08/04 02:41:05;;;;;;;2.60;2.10;;;20.60;78.50;21.50;100212.00;;;;6271472;22;20173;-51
2023/08/04 02:43:30;;;;;;;2.67;2.00;;;20.60;78.60;21.50;100224.00;;;;6269634;22;20589;-51
2023/08/04 02:45:56;;;;;;;2.30;2.10;;;20.60;78.50;21.50;100226.00;;;;6271280;22;20175;-52
2023/08/04 02:48:22;;;;;;;2.60;2.00;;;20.60;78.50;21.50;100223.00;;;;6271388;22;20582;-51
2023/08/04 02:51:06;;;;;;;2.67;2.03;;;20.60;78.50;21.50;100236.00;;;;6271383;22;20525;-51
2023/08/04 02:53:32;;;;;;;2.20;1.97;;;20.60;78.50;21.50;100235.00;;;;6270340;22;20527;-51
2023/08/04 02:55:58;;;;;;;3.13;2.40;;;20.60;78.50;21.50;100226.00;;;;6271067;22;20149;-52
2023/08/04 02:58:26;;;;;;;2.43;2.20;;;20.60;78.50;21.50;100239.00;;;;6271365;22;20593;-53
2023/08/04 03:00:53;;;;;;;4.07;2.20;;;20.60;78.50;21.50;100237.00;;;;6271392;22;20177;-52
2023/08/04 03:03:18;;;;;;;3.33;2.10;;;20.60;78.50;21.50;100238.00;;;;6272450;22;20667;-52
2023/08/04 03:05:44;;;;;;;2.20;2.00;;;20.60;78.40;21.50;100239.00;;;;6272466;22;20260;-51
2023/08/04 03:08:10;;;;;;;2.53;2.23;;;20.60;78.50;21.50;100249.00;;;;6272012;22;20267;-51
2023/08/04 03:10:41;;;;;;;2.17;1.97;;;20.50;78.40;21.50;100242.00;;;;6272083;22;20194;-52
2023/08/04 03:13:08;;;;;;;2.77;2.27;;;20.50;78.40;21.50;100243.00;;;;6270909;22;20129;-53
2023/08/04 03:15:34;;;;;;;3.17;2.20;;;20.50;78.40;21.50;100247.00;;;;6272226;22;20597;-52
2023/08/04 03:17:59;;;;;;;3.23;2.27;;;20.50;78.40;21.50;100257.00;;;;6272068;22;20509;-52
2023/08/04 03:20:25;;;;;;;3.93;2.30;;;20.50;78.40;21.50;100256.00;;;;6271876;22;20164;-52
2023/08/04 03:22:51;;;;;;;3.50;2.23;;;20.50;78.40;21.50;100259.00;;;;6270931;22;20182;-52
2023/08/04 03:25:17;;;;;;;2.27;2.07;;;20.50;78.40;21.50;100260.00;;;;6270854;22;20640;-52
2023/08/04 03:27:42;;;;;;;2.70;2.30;;;20.50;78.40;21.50;100255.00;;;;6272431;22;20191;-54
2023/08/04 03:30:08;;;;;;;3.20;2.20;;;20.50;78.40;21.40;100257.00;;;;6272381;22;20187;-52
2023/08/04 03:32:34;;;;;;;2.30;2.07;;;20.50;78.30;21.40;100264.00;;;;6270013;22;20156;-53
2023/08/04 03:35:00;;;;;;;2.67;2.20;;;20.50;78.30;21.40;100263.00;;;;6269119;22;20145;-52
2023/08/04 03:37:26;;;;;;;3.60;2.20;;;20.50;78.40;21.40;100267.00;;;;6270720;22;20145;-52
2023/08/04 03:39:51;;;;;;;3.33;2.10;;;20.50;78.30;21.40;100267.00;;;;6270856;22;20172;-51
2023/08/04 03:42:17;;;;;;;2.70;2.10;;;20.50;78.40;21.40;100267.00;;;;6271511;22;20145;-50
2023/08/04 03:44:43;;;;;;;3.37;2.20;;;20.50;78.30;21.40;100266.00;;;;6270160;22;20149;-53
2023/08/04 03:47:09;;;;;;;3.87;2.13;;;20.40;78.20;21.40;100272.00;;;;6272351;22;20172;-52
2023/08/04 03:49:34;;;;;;;2.33;2.13;;;20.50;78.40;21.30;100280.00;;;;6278025;22;20145;-52
2023/08/04 03:52:00;;;;;;;4.33;2.30;;;20.40;78.30;21.30;100279.00;;;;6271214;22;20141;-53
2023/08/04 03:54:26;;;;;;;2.33;2.13;;;20.40;78.30;21.30;100282.00;;;;6270020;22;20191;-52
2023/08/04 03:56:51;;;;;;;3.03;2.40;;;20.40;78.40;21.30;100277.00;;;;6271385;22;20203;-52
2023/08/04 03:59:17;;;;;;;2.30;2.10;;;20.40;78.40;21.30;100284.00;;;;6271482;22;20149;-52
2023/08/04 04:01:43;;;;;;;2.63;2.17;;;20.40;78.30;21.30;100280.00;;;;6271042;22;20655;-52
2023/08/04 04:04:08;;;;;;;2.37;1.90;;;20.40;78.30;21.30;100289.00;;;;6275552;22;20160;-52
2023/08/04 04:06:34;;;;;;;2.37;2.17;;;20.40;78.30;21.30;100287.00;;;;6270018;22;20172;-52
2023/08/04 04:09:00;;;;;;;3.03;2.20;;;20.40;78.30;21.30;100283.00;;;;6269668;22;20153;-52
2023/08/04 04:11:26;;;;;;;3.00;2.10;;;20.40;78.30;21.10;100290.00;;;;6270788;22;20161;-51
2023/08/04 04:13:51;;;;;;;2.53;2.20;;;20.30;78.20;21.30;100288.00;;;;6271249;22;20493;-51
2023/08/04 04:16:17;;;;;;;3.20;2.20;;;20.30;78.20;21.20;100281.00;;;;6270459;22;20149;-51
2023/08/04 04:18:43;;;;;;;2.40;2.20;;;20.30;78.20;21.20;100288.00;;;;6271450;22;20145;-51
2023/08/04 04:21:08;;;;;;;3.17;2.43;;;20.30;78.20;21.20;100288.00;;;;6269429;22;20176;-51
2023/08/04 04:23:34;;;;;;;3.23;2.20;;;20.30;78.20;21.20;100288.00;;;;6271354;22;20183;-51
2023/08/04 04:26:00;;;;;;;2.43;2.23;;;20.30;78.20;21.20;100296.00;;;;6268751;22;20176;-52
2023/08/04 04:28:25;;;;;;;2.47;2.10;;;20.30;78.10;21.20;100282.00;;;;6271577;22;20149;-52
2023/08/04 04:30:51;;;;;;;2.47;2.23;;;20.30;78.20;21.20;100300.00;;;;6268697;22;20500;-52
2023/08/04 04:33:17;;;;;;;3.40;2.43;;;20.30;78.20;21.20;100307.00;;;;6270823;22;20142;-52
2023/08/04 04:35:49;;;;;;;2.30;2.10;;;20.30;78.20;21.20;100306.00;;;;6270317;22;20152;-51
2023/08/04 04:38:15;;;;;;;4.80;2.47;;;20.30;78.10;21.20;100305.00;;;;6269479;22;20160;-51
2023/08/04 04:40:40;;;;;;;3.37;2.30;;;20.30;78.10;21.20;100304.00;;;;6271195;22;20487;-51
2023/08/04 04:43:06;;;;;;;2.30;2.10;;;20.30;78.10;21.20;100311.00;;;;6269876;22;20175;-53
2023/08/04 04:45:32;;;;;;;4.93;2.50;;;20.20;78.10;21.20;100319.00;;;;6270029;22;20234;-53
2023/08/04 04:47:58;;;;;;;2.83;2.20;;;20.30;78.20;21.20;100322.00;;;;6270139;22;20141;-51
2023/08/04 04:50:24;;;;;;;3.50;2.13;;;20.30;78.20;21.20;100319.00;;;;6270168;22;20181;-51
2023/08/04 04:52:49;;;;;;;4.43;2.37;;;20.30;78.20;21.10;100320.00;;;;6270636;22;20629;-51
2023/08/04 04:55:15;;;;;;;3.47;2.50;;;20.20;78.10;21.20;100318.00;;;;6270398;22;20159;-52
2023/08/04 04:57:41;;;;;;;3.83;2.60;;;20.20;78.10;21.20;100332.00;;;;6270477;22;20663;-52
2023/08/04 05:00:08;;;;;;;3.57;2.50;;;20.20;78.10;21.20;100325.00;;;;6270113;22;20176;-52
2023/08/04 05:02:34;;;;;;;4.23;2.30;;;20.30;78.30;21.10;100337.00;;;;6272171;22;20142;-52
2023/08/04 05:04:59;;;;;;;4.37;2.60;;;20.20;78.20;21.10;100323.00;;;;6270107;22;20160;-52
2023/08/04 05:07:25;;;;;;;5.50;2.50;;;20.20;78.30;21.10;100336.00;;;;6271511;22;20176;-52
2023/08/04 05:09:51;;;;;;;3.13;2.60;;;20.20;78.20;21.10;100324.00;;;;6272446;22;20172;-52
2023/08/04 05:12:16;;;;;;;2.40;2.20;;;20.30;78.50;21.20;100333.00;;;;6272909;22;20145;-53
2023/08/04 05:14:42;;;;;;;4.43;2.70;;;20.30;78.40;21.20;100340.00;;;;6272319;22;20168;-52
2023/08/04 05:17:08;;;;;;;4.20;2.50;;;20.30;78.40;21.20;100341.00;;;;6271568;22;20727;-52
2023/08/04 05:19:33;;;;;;;3.73;2.30;;;20.30;78.30;21.10;100344.00;;;;6270795;22;20156;-51
2023/08/04 05:21:59;;;;;;;5.60;2.70;;;20.20;78.30;21.10;100338.00;;;;6272681;22;20179;-51
2023/08/04 05:24:25;;;;;;;3.53;2.43;;;20.20;78.40;21.20;100340.00;;;;6272816;22;20751;-52
2023/08/04 05:26:51;;;;;;;3.37;2.53;;;20.20;78.40;21.20;100335.00;;;;6271622;22;20169;-51
2023/08/04 05:29:16;;;;;;;3.33;2.60;;;20.20;78.30;21.10;100348.00;;;;6272913;22;20152;-52
2023/08/04 05:31:42;;;;;;;3.43;2.50;;;20.30;78.40;21.20;100345.00;;;;6270191;22;20542;-52
2023/08/04 05:34:08;;;;;;;3.10;2.57;;;20.30;78.40;21.20;100340.00;;;;6272541;22;20141;-50
2023/08/04 05:36:33;;;;;;;3.97;2.60;;;20.20;78.30;21.20;100346.00;;;;6271803;22;20149;-54
2023/08/04 05:38:59;;;;;;;2.50;2.30;;;20.20;78.20;21.20;100343.00;;;;6272662;22;20153;-52
2023/08/04 05:41:25;;;;;;;3.63;2.60;;;20.20;78.30;21.10;100344.00;;;;6271180;22;20627;-52
2023/08/04 05:43:50;;;;;;;3.57;2.50;;;20.20;78.20;21.20;100346.00;;;;6272799;22;20145;-52
2023/08/04 05:46:16;;;;;;;4.20;2.60;;;20.20;78.20;21.10;100350.00;;;;6273546;22;20177;-52
2023/08/04 05:48:42;;;;;;;3.40;2.40;;;20.20;78.30;21.10;100350.00;;;;6275469;22;20149;-52
2023/08/04 05:51:08;;;;;;;2.73;2.30;;;20.20;78.20;21.20;100360.00;;;;6272014;22;20165;-52
2023/08/04 05:53:33;;;;;;;2.60;2.40;;;20.20;78.20;21.20;100364.00;;;;6272749;22;20148;-52
2023/08/04 05:55:59;;;;;;;2.60;2.40;;;20.20;78.20;21.10;100355.00;;;;6271712;22;20606;-51
2023/08/04 05:58:25;;;;;;;2.57;2.33;;;20.20;78.10;21.10;100375.00;;;;6272212;22;20157;-52
2023/08/04 06:00:51;;;;;;;2.63;2.43;;;20.20;78.20;21.10;100371.00;;;;6275278;22;20169;-52
2023/08/04 06:03:16;;;;;;;2.60;2.40;;;20.20;78.20;21.10;100372.00;;;;6247261;22;20152;-52
2023/08/04 06:05:43;;;;;;;2.53;2.30;;;20.20;78.20;21.10;100370.00;;;;6271422;22;20172;-52
2023/08/04 06:08:08;;;;;;;3.10;2.40;;;20.20;78.20;21.10;100369.00;;;;6269811;22;20251;-52
2023/08/04 06:10:34;;;;;;;3.23;2.67;;;20.20;78.20;21.10;100380.00;;;;6271727;22;20629;-51
2023/08/04 06:13:00;;;;;;;2.70;2.40;;;20.20;78.20;21.10;100384.00;;;;6270061;22;20148;-52
2023/08/04 06:15:26;;;;;;;3.57;2.67;;;20.20;78.20;21.10;100378.00;;;;6270339;22;20145;-51
2023/08/04 06:17:52;;;;;;;3.73;2.90;;;20.20;78.30;21.10;100376.00;;;;6271879;22;20164;-52
2023/08/04 06:20:17;;;;;;;3.10;2.60;;;20.20;78.20;21.10;100385.00;;;;6269975;22;20176;-50
2023/08/04 06:22:46;;;;;;;2.60;2.40;;;20.20;78.20;21.10;100391.00;;;;6272761;22;20780;-51
2023/08/04 06:25:14;;;;;;;3.10;2.63;;;20.20;78.20;21.10;100388.00;;;;6245439;22;20153;-51
2023/08/04 06:27:40;;;;;;;3.63;2.77;;;20.20;79.00;21.10;100393.00;;;;6271885;22;20145;-53
2023/08/04 06:30:07;;;;;;;2.70;2.50;;;20.20;78.30;21.10;100399.00;;;;6271303;22;20609;-52
2023/08/04 06:32:32;;;;;;;2.70;2.50;;;20.20;78.40;21.10;100399.00;;;;6272108;22;20149;-52
2023/08/04 06:34:58;;;;;;;2.70;2.43;;;20.20;78.30;21.10;100402.00;;;;6271429;22;20279;-53
2023/08/04 06:37:24;;;;;;;2.73;2.50;;;20.20;78.30;21.10;100407.00;;;;6272265;22;20485;-52
2023/08/04 06:39:50;;;;;;;3.90;2.70;;;20.20;78.40;21.10;100411.00;;;;6271380;22;20538;-51
2023/08/04 06:42:17;;;;;;;2.97;2.50;;;20.10;78.30;21.10;100409.00;;;;6270964;22;20175;-51
2023/08/04 06:44:42;;;;;;;3.13;2.70;;;20.20;78.40;21.10;100407.00;;;;6271809;22;20149;-51
2023/08/04 06:47:08;;;;;;;2.70;2.50;;;20.20;78.40;21.10;100413.00;;;;6271350;22;20556;-52
2023/08/04 06:49:35;;;;;;;2.73;2.50;;;20.10;78.30;21.10;100409.00;;;;6270999;22;20157;-52
2023/08/04 06:52:01;;;;;;;3.90;2.40;;;20.10;78.30;21.10;100407.00;;;;6271669;22;20141;-52
2023/08/04 06:54:27;;;;;;;2.50;2.30;;;20.20;78.40;21.10;100407.00;;;;6272119;22;20224;-52
2023/08/04 06:56:53;;;;;;;2.90;2.60;;;20.20;78.40;21.10;100411.00;;;;6271428;22;20156;-52
2023/08/04 06:59:19;;;;;;;3.23;2.60;;;20.20;78.40;21.00;100428.00;;;;6272983;22;20148;-52
2023/08/04 07:01:44;;;;;;;2.60;2.40;;;20.20;78.40;21.10;100425.00;;;;6270822;22;20257;-52
2023/08/04 07:04:10;;;;;;;2.77;2.57;;;20.20;78.40;21.10;100424.00;;;;6271303;22;20199;-52
2023/08/04 07:06:36;;;;;;;2.67;2.47;;;20.20;78.50;21.10;100430.00;;;;6270900;22;20173;-53
2023/08/04 07:09:02;;;;;;;2.83;2.60;;;20.20;78.40;21.10;100431.00;;;;6271882;22;20149;-53
2023/08/04 07:11:28;;;;;;;2.90;2.40;;;20.20;78.30;21.10;100431.00;;;;6272216;22;20168;-53
2023/08/04 07:13:53;;;;;;;3.53;2.90;;;20.20;78.40;21.10;100429.00;;;;6272396;22;20140;-52
2023/08/04 07:16:19;;;;;;;3.17;2.87;;;20.20;78.50;21.10;100425.00;;;;6270679;22;20152;-53
2023/08/04 07:18:45;;;;;;;3.07;2.60;;;20.20;78.70;21.10;100435.00;;;;6271275;22;20171;-52
2023/08/04 07:21:12;;;;;;;2.80;2.60;;;20.20;78.70;21.10;100434.00;;;;6270863;22;20238;-52
2023/08/04 07:23:38;;;;;;;3.10;2.80;;;20.10;78.60;21.10;100440.00;;;;6271577;22;20153;-52
2023/08/04 07:26:04;;;;;;;3.87;2.90;;;20.20;78.70;21.10;100441.00;;;;6270396;22;20678;-52
2023/08/04 07:28:31;;;;;;;3.03;2.70;;;20.20;78.80;21.10;100442.00;;;;6271829;22;20465;-52
2023/08/04 07:30:58;;;;;;;4.53;2.70;;;20.20;78.70;21.10;100449.00;;;;6269519;22;20173;-52
2023/08/04 07:33:26;;;;;;;2.60;2.40;;;20.20;78.70;21.10;100455.00;;;;6270997;22;20180;-53
2023/08/04 07:35:53;;;;;;;2.53;2.33;;;20.20;78.60;21.10;100452.00;;;;6267690;22;20180;-52
2023/08/04 07:38:20;;;;;;;3.53;2.60;;;20.20;78.80;21.10;100449.00;;;;6270213;22;20624;-53
2023/08/04 07:40:45;;;;;;;3.60;2.70;;;20.20;78.80;21.10;100454.00;;;;6270675;22;20251;-52
2023/08/04 07:43:12;;;;;;;3.00;2.63;;;20.20;78.60;20.70;100449.00;;;;6271097;22;20172;-52
2023/08/04 07:45:38;;;;;;;3.00;2.70;;;20.20;78.80;21.10;100451.00;;;;6274681;22;20234;-52
2023/08/04 07:48:04;;;;;;;2.50;2.30;;;20.20;78.70;21.10;100450.00;;;;6271233;22;20147;-52
2023/08/04 07:50:29;;;;;;;2.60;2.40;;;20.20;78.80;21.10;100458.00;;;;6271462;22;20210;-51
2023/08/04 07:52:55;;;;;;;2.60;2.40;;;20.20;78.80;21.10;100455.00;;;;6271383;22;20623;-51
2023/08/04 07:55:21;;;;;;;3.83;2.33;;;20.20;78.70;21.10;100446.00;;;;6270976;22;20149;-51
2023/08/04 07:57:47;;;;;;;4.03;2.70;;;20.20;78.80;21.10;100450.00;;;;6269900;22;20145;-51
2023/08/04 08:00:13;;;;;;;3.30;2.60;;;20.10;78.60;21.10;100447.00;;;;6276289;22;20177;-51
2023/08/04 08:02:39;;;;;;;2.80;2.50;;;20.20;78.80;21.10;100454.00;;;;6271543;22;20598;-51
2023/08/04 08:05:07;;;;;;;3.10;2.50;;;20.10;78.60;21.10;100453.00;;;;6270524;22;20148;-51
2023/08/04 08:07:34;;;;;;;3.73;2.70;;;20.20;78.70;21.10;100448.00;;;;6270347;22;20145;-51
2023/08/04 08:09:59;;;;;;;3.53;2.63;;;20.20;78.80;21.10;100447.00;;;;6271360;22;20176;-51
2023/08/04 08:12:25;;;;;;;3.80;2.57;;;20.10;78.70;21.10;100447.00;;;;6268880;22;20157;-51
2023/08/04 08:14:51;;;;;;;3.70;2.63;;;20.20;78.80;21.10;100444.00;;;;6268310;22;20235;-51
2023/08/04 08:17:17;;;;;;;2.93;2.50;;;20.20;78.80;21.10;100458.00;;;;6268214;22;20157;-51
2023/08/04 08:19:42;;;;;;;3.60;2.73;;;20.20;78.80;21.10;100457.00;;;;6268674;22;20149;-53
2023/08/04 08:22:08;;;;;;;2.70;2.50;;;20.20;78.90;21.10;100461.00;;;;6271133;22;20155;-51
2023/08/04 08:24:34;;;;;;;2.50;2.30;;;20.20;78.90;21.10;100458.00;;;;6271595;22;20614;-51
2023/08/04 08:27:00;;;;;;;2.70;2.50;;;20.10;78.80;21.10;100466.00;;;;6269354;22;20173;-52
2023/08/04 08:29:25;;;;;;;2.90;2.70;;;20.10;78.80;21.10;100469.00;;;;6270697;22;20153;-52
2023/08/04 08:31:51;;;;;;;4.80;2.60;;;20.20;78.90;21.10;100473.00;;;;6271283;22;20557;-51
2023/08/04 08:34:17;;;;;;;2.70;2.50;;;20.10;78.80;21.10;100477.00;;;;6269516;22;20651;-51
2023/08/04 08:36:42;;;;;;;3.10;2.80;;;20.10;78.80;21.10;100471.00;;;;6270560;22;20201;-52
2023/08/04 08:39:08;;;;;;;2.80;2.60;;;20.10;78.80;21.10;100476.00;;;;6271978;22;20153;-52
2023/08/04 08:41:34;;;;;;;4.20;2.60;;;20.20;79.00;21.10;100475.00;;;;6272007;22;20199;-52
2023/08/04 08:44:00;;;;;;;5.80;2.80;;;20.10;79.20;21.10;100476.00;;;;6273421;22;20156;-51
2023/08/04 08:46:25;;;;;;;10.17;2.83;;;20.20;79.40;21.10;100482.00;;;;6270786;22;20699;-51
2023/08/04 08:48:51;;;;;;;7.30;3.00;;;20.10;79.60;21.10;100483.00;;;;6245367;22;20155;-51
2023/08/04 08:51:19;;;;;;;6.23;2.80;;;20.10;79.80;21.00;100477.00;;;;6272442;22;20172;-52
2023/08/04 08:53:47;;;;;;;3.87;2.80;;;20.10;79.80;21.10;100483.00;;;;6272671;22;20146;-52
2023/08/04 08:56:14;;;;;;;3.77;2.57;;;20.10;79.70;21.10;100486.00;;;;6272030;22;20156;-51
2023/08/04 08:58:40;;;;;;;5.90;3.10;;;20.10;79.70;21.10;100495.00;;;;6271403;22;20294;-50
2023/08/04 09:01:06;;;;;;;6.37;2.70;;;20.10;79.80;21.10;100505.00;;;;6273130;22;20169;-50
2023/08/04 09:03:35;;;;;;;3.10;2.57;;;20.10;79.80;21.10;100495.00;;;;6272765;22;20222;-51
2023/08/04 09:06:01;;;;;;;4.40;2.70;;;20.10;80.10;21.10;100491.00;;;;6271543;22;20295;-51
2023/08/04 09:08:27;;;;;;;4.23;2.70;;;20.20;80.10;21.10;100497.00;;;;6272846;22;20174;-51
2023/08/04 09:10:53;;;;;;;4.40;3.20;;;20.10;80.00;21.10;100499.00;;;;6273296;22;20188;-51
2023/08/04 09:13:19;;;;;;;4.30;2.77;;;20.10;80.10;21.10;100494.00;;;;6273501;22;20488;-51
2023/08/04 09:15:53;;;;;;;4.43;2.60;;;20.10;80.10;21.10;100496.00;;;;6273074;22;20163;-51
2023/08/04 09:18:25;;;;;;;3.00;2.70;;;20.20;80.20;21.10;100498.00;;;;6272846;22;20160;-52
2023/08/04 09:20:58;;;;;;;4.13;2.60;;;20.10;80.00;21.10;100505.00;;;;6272643;22;20188;-50
2023/08/04 09:23:26;;;;;;;2.90;2.50;;;20.10;80.10;21.10;100513.00;;;;6273254;22;20176;-50
2023/08/04 09:25:53;;;;;;;4.00;2.47;;;20.10;80.10;21.10;100499.00;;;;6272911;22;20173;-51
2023/08/04 09:28:19;;;;;;;4.67;2.53;;;20.10;80.10;21.10;100491.00;;;;6272749;22;20190;-51
2023/08/04 09:31:04;;;;;;;4.30;2.90;;;20.10;80.00;21.10;100502.00;;;;6271310;22;20169;-50
2023/08/04 09:33:31;;;;;;;3.40;2.50;;;20.10;80.10;21.10;100502.00;;;;6272951;22;20655;-50
2023/08/04 09:36:08;;;;;;;3.87;2.70;;;20.10;80.10;21.10;100511.00;;;;6272484;22;20620;-50
2023/08/04 09:38:34;;;;;;;2.87;2.47;;;20.10;80.00;21.10;100512.00;;;;6273329;22;20198;-50
2023/08/04 09:41:08;;;;;;;2.90;2.60;;;20.10;80.10;21.10;100504.00;;;;6272996;22;20182;-51
2023/08/04 09:43:34;;;;;;;3.30;2.80;;;20.10;80.00;21.10;100508.00;;;;6276334;22;20148;-50
2023/08/04 09:46:06;;;;;;;3.43;2.40;;;20.10;80.10;21.10;100503.00;;;;6271495;22;20180;-50
2023/08/04 09:48:32;;;;;;;2.70;2.50;;;20.10;80.10;21.10;100507.00;;;;6272939;22;20489;-50
2023/08/04 09:51:12;;;;;;;4.27;2.70;;;20.10;80.00;21.20;100511.00;;;;6272944;22;20162;-50
2023/08/04 09:53:47;;;;;;;2.97;2.60;;;20.10;80.10;21.20;100508.00;;;;6271707;22;20152;-51
2023/08/04 09:56:15;;;;;;;2.97;2.47;;;20.10;80.10;21.20;100513.00;;;;6275366;22;20141;-51
2023/08/04 09:58:41;;;;;;;3.67;2.50;;;20.10;80.10;21.20;100518.00;;;;6279096;22;20172;-51
2023/08/04 10:01:07;;;;;;;3.13;2.43;;;20.10;80.10;21.20;100517.00;;;;6272626;22;20184;-51
2023/08/04 10:03:38;;;;;;;3.50;2.60;;;20.20;80.20;21.20;100523.00;;;;6272818;22;20224;-50
2023/08/04 10:06:04;;;;;;;2.80;2.50;;;20.10;80.00;21.20;100522.00;;;;6271628;22;20214;-50
2023/08/04 10:08:31;;;;;;;3.10;2.40;;;20.10;80.00;21.20;100518.00;;;;6272341;22;20152;-50
2023/08/04 10:10:58;;;;;;;2.70;2.50;;;20.10;80.10;21.20;100515.00;;;;6271289;22;20161;-51
2023/08/04 10:13:28;;;;;;;2.40;2.20;;;20.10;80.10;21.20;100520.00;;;;6273343;22;20144;-51
2023/08/04 10:15:55;;;;;;;3.30;2.50;;;20.10;80.00;21.20;100524.00;;;;6246081;22;20194;-51
2023/08/04 10:18:23;;;;;;;2.60;2.40;;;20.10;80.10;21.20;100513.00;;;;6245927;22;20167;-51
2023/08/04 10:20:53;;;;;;;2.50;2.30;;;20.20;80.10;21.20;100516.00;;;;6271071;22;20165;-51
2023/08/04 10:23:18;;;;;;;2.50;2.30;;;20.20;80.20;21.20;100510.00;;;;6273353;22;20574;-51
2023/08/04 10:26:02;;;;;;;4.47;2.50;;;20.10;80.00;21.20;100516.00;;;;6245337;22;20165;-51
2023/08/04 10:28:31;;;;;;;4.17;2.53;;;20.20;80.10;21.20;100520.00;;;;6272253;22;20490;-51
2023/08/04 10:31:11;;;;;;;2.97;2.50;;;20.20;80.10;21.20;100523.00;;;;6272337;22;20200;-51
2023/08/04 10:33:37;;;;;;;3.60;2.50;;;20.10;80.00;21.20;100528.00;;;;6272883;22;20143;-51
2023/08/04 10:36:10;;;;;;;2.97;2.53;;;20.20;80.10;21.20;100521.00;;;;6272101;22;20152;-51
2023/08/04 10:38:46;;;;;;;2.77;2.57;;;20.20;80.10;21.20;100504.00;;;;6272760;22;20156;-51
2023/08/04 10:41:12;;;;;;;2.83;2.30;;;20.20;80.10;21.20;100528.00;;;;6272127;22;20169;-51
2023/08/04 10:43:39;;;;;;;2.63;2.43;;;20.20;80.00;21.20;100524.00;;;;6270709;22;20152;-51
2023/08/04 10:46:10;;;;;;;2.70;2.50;;;20.20;80.00;21.20;100526.00;;;;6270966;22;20867;-51